createdAt,value
2018-11-25T00:00:49.112Z,13.73
2018-11-25T00:03:18.781Z,11.07
2018-11-25T00:05:48.221Z,12.33
2018-11-25T00:08:17.357Z,14.30
2018-11-25T00:10:46.564Z,14.10
2018-11-25T00:13:16.203Z,12.17
2018-11-25T00:15:46.114Z,15.53
2018-11-25T00:18:16.540Z,13.97
2018-11-25T00:20:47.016Z,14.27
2018-11-25T00:23:21.618Z,14.73
2018-11-25T00:25:51.142Z,12.27
2018-11-25T00:28:22.160Z,12.10
2018-11-25T00:30:51.402Z,15.97
2018-11-25T00:33:22.558Z,12.13
2018-11-25T00:35:52.396Z,13.20
2018-11-25T00:38:24.372Z,12.47
2018-11-25T00:40:56.616Z,16.40
2018-11-25T00:43:27.292Z,20.30
2018-11-25T00:45:56.463Z,19.03
2018-11-25T00:48:30.953Z,21.17
2018-11-25T00:51:00.158Z,17.63
2018-11-25T00:53:36.735Z,16.87
2018-11-25T00:56:07.597Z,15.77
2018-11-25T00:58:36.781Z,14.73
2018-11-25T01:01:06.378Z,20.23
2018-11-25T01:03:38.199Z,18.00
2018-11-25T01:06:08.403Z,14.57
2018-11-25T01:08:40.750Z,15.30
2018-11-25T01:11:11.136Z,12.80
2018-11-25T01:13:44.042Z,13.47
2018-11-25T01:16:13.106Z,12.97
2018-11-25T01:18:45.739Z,12.80
2018-11-25T01:21:14.758Z,15.80
2018-11-25T01:23:47.329Z,15.27
2018-11-25T01:26:16.857Z,17.10
2018-11-25T01:28:53.513Z,14.93
2018-11-25T01:31:22.864Z,17.10
2018-11-25T01:33:53.649Z,16.80
2018-11-25T01:36:22.694Z,16.60
2018-11-25T01:38:55.837Z,16.00
2018-11-25T01:41:24.887Z,16.23
2018-11-25T01:43:58.570Z,16.53
2018-11-25T01:46:27.847Z,17.30
2018-11-25T01:49:00.953Z,17.50
2018-11-25T01:51:30.712Z,16.80
2018-11-25T01:54:04.622Z,16.00
2018-11-25T01:56:33.665Z,20.07
2018-11-25T01:59:07.462Z,17.50
2018-11-25T02:01:37.875Z,17.70
2018-11-25T02:04:15.001Z,15.37
2018-11-25T02:06:44.071Z,21.37
2018-11-25T02:09:13.675Z,18.57
2018-11-25T02:11:42.631Z,17.60
2018-11-25T02:14:16.269Z,18.93
2018-11-25T02:16:45.578Z,16.60
2018-11-25T02:19:20.837Z,20.60
2018-11-25T02:21:49.882Z,16.53
2018-11-25T02:24:20.425Z,18.47
2018-11-25T02:26:49.446Z,15.60
2018-11-25T02:29:23.468Z,17.73
2018-11-25T02:31:52.469Z,19.50
2018-11-25T02:34:25.745Z,19.93
2018-11-25T02:36:55.049Z,18.23
2018-11-25T02:39:32.057Z,19.00
2018-11-25T02:42:01.790Z,21.77
2018-11-25T02:44:32.529Z,21.83
2018-11-25T02:47:01.545Z,21.63
2018-11-25T02:49:33.323Z,23.37
2018-11-25T02:52:02.323Z,24.67
2018-11-25T02:54:39.417Z,22.67
2018-11-25T02:57:08.685Z,23.80
2018-11-25T02:59:39.307Z,29.23
2018-11-25T03:02:08.326Z,24.07
2018-11-25T03:04:40.507Z,24.07
2018-11-25T03:07:09.602Z,24.20
2018-11-25T03:09:46.050Z,29.10
2018-11-25T03:12:15.305Z,29.37
2018-11-25T03:14:48.073Z,31.13
2018-11-25T03:17:17.029Z,29.83
2018-11-25T03:19:49.786Z,32.10
2018-11-25T03:22:18.885Z,30.67
2018-11-25T03:24:55.055Z,29.67
2018-11-25T03:27:24.270Z,30.00
2018-11-25T03:29:55.209Z,27.23
2018-11-25T03:32:24.301Z,26.43
2018-11-25T03:34:58.246Z,28.90
2018-11-25T03:37:27.221Z,28.60
2018-11-25T03:40:04.035Z,29.67
2018-11-25T03:42:33.281Z,26.70
2018-11-25T03:45:03.380Z,28.27
2018-11-25T03:47:32.470Z,26.57
2018-11-25T03:50:07.206Z,25.80
2018-11-25T03:52:36.181Z,33.40
2018-11-25T03:55:17.561Z,30.20
2018-11-25T03:57:46.474Z,29.23
2018-11-25T04:02:52.104Z,24.97
2018-11-25T04:05:21.263Z,26.00
2018-11-25T04:07:50.347Z,23.40
2018-11-25T04:10:20.678Z,24.13
2018-11-25T04:12:50.011Z,23.57
2018-11-25T04:15:20.370Z,23.93
2018-11-25T04:17:50.134Z,20.70
2018-11-25T04:20:26.261Z,20.47
2018-11-25T04:22:55.306Z,27.63
2018-11-25T04:25:24.675Z,23.27
2018-11-25T04:27:53.797Z,23.87
2018-11-25T04:30:30.112Z,22.77
2018-11-25T04:32:59.443Z,24.03
2018-11-25T04:35:30.103Z,26.60
2018-11-25T04:37:59.789Z,21.57
2018-11-25T04:40:32.250Z,24.23
2018-11-25T04:43:01.330Z,22.80
2018-11-25T04:45:37.632Z,24.33
2018-11-25T04:48:06.913Z,22.03
2018-11-25T04:50:37.005Z,22.97
2018-11-25T04:53:05.982Z,24.40
2018-11-25T04:55:37.865Z,24.93
2018-11-25T04:58:07.142Z,26.30
2018-11-25T05:00:41.206Z,28.33
2018-11-25T05:03:10.530Z,27.73
2018-11-25T05:05:46.820Z,28.43
2018-11-25T05:08:15.839Z,27.37
2018-11-25T05:10:48.023Z,27.80
2018-11-25T05:13:17.309Z,29.50
2018-11-25T05:15:49.820Z,30.50
2018-11-25T05:18:18.848Z,29.87
2018-11-25T05:20:55.964Z,31.67
2018-11-25T05:23:25.352Z,34.67
2018-11-25T05:25:57.024Z,38.07
2018-11-25T05:28:26.229Z,37.67
2018-11-25T05:30:56.404Z,43.67
2018-11-25T05:33:25.510Z,54.60
2018-11-25T05:36:02.001Z,54.80
2018-11-25T05:38:31.032Z,50.97
2018-11-25T05:41:07.320Z,54.57
2018-11-25T05:43:36.632Z,50.00
2018-11-25T05:46:06.860Z,61.17
2018-11-25T05:48:36.057Z,61.23
2018-11-25T05:51:13.129Z,57.60
2018-11-25T05:53:42.117Z,66.10
2018-11-25T05:56:13.083Z,56.57
2018-11-25T05:58:42.774Z,53.87
2018-11-25T06:01:15.566Z,53.77
2018-11-25T06:03:45.184Z,50.53
2018-11-25T06:06:17.954Z,49.20
2018-11-25T06:08:46.981Z,46.47
2018-11-25T06:11:23.273Z,45.90
2018-11-25T06:13:53.006Z,45.90
2018-11-25T06:16:22.194Z,47.43
2018-11-25T06:18:51.662Z,54.83
2018-11-25T06:21:24.620Z,47.63
2018-11-25T06:23:53.586Z,51.53
2018-11-25T06:26:26.881Z,46.50
2018-11-25T06:28:56.291Z,43.83
2018-11-25T06:31:32.771Z,42.83
2018-11-25T06:34:01.794Z,38.50
2018-11-25T06:36:30.871Z,37.43
2018-11-25T06:38:59.862Z,36.20
2018-11-25T06:41:34.865Z,35.30
2018-11-25T06:44:04.310Z,49.80
2018-11-25T06:46:36.599Z,48.90
2018-11-25T06:49:06.533Z,37.43
2018-11-25T06:51:39.148Z,35.07
2018-11-25T06:54:08.497Z,39.67
2018-11-25T06:56:45.058Z,37.00
2018-11-25T06:59:14.335Z,39.50
2018-11-25T07:01:43.850Z,42.57
2018-11-25T07:04:13.197Z,40.37
2018-11-25T07:06:49.232Z,36.30
2018-11-25T07:09:18.282Z,38.37
2018-11-25T07:11:48.643Z,41.80
2018-11-25T07:14:17.638Z,41.83
2018-11-25T07:16:54.565Z,42.87
2018-11-25T07:19:23.607Z,46.67
2018-11-25T07:21:55.187Z,38.90
2018-11-25T07:24:25.719Z,42.37
2018-11-25T07:26:57.067Z,38.70
2018-11-25T07:29:26.470Z,40.63
2018-11-25T07:32:03.696Z,47.33
2018-11-25T07:36:02.127Z,42.10
2018-11-25T07:38:31.219Z,41.20
2018-11-25T07:41:07.347Z,42.33
2018-11-25T07:43:36.974Z,46.47
2018-11-25T07:46:10.150Z,45.70
2018-11-25T07:48:40.502Z,42.63
2018-11-25T07:51:13.053Z,43.40
2018-11-25T07:53:42.029Z,41.77
2018-11-25T07:56:18.063Z,50.53
2018-11-25T07:58:47.391Z,54.20
2018-11-25T08:01:17.733Z,54.90
2018-11-25T08:03:47.497Z,55.53
2018-11-25T08:06:24.734Z,53.87
2018-11-25T08:08:53.811Z,64.80
2018-11-25T08:11:22.804Z,61.77
2018-11-25T08:13:51.806Z,58.13
2018-11-25T08:16:24.630Z,57.23
2018-11-25T08:18:53.611Z,62.73
2018-11-25T08:21:27.616Z,58.60
2018-11-25T08:23:57.217Z,57.13
2018-11-25T08:26:29.914Z,65.30
2018-11-25T08:28:59.264Z,54.43
2018-11-25T08:31:31.798Z,65.90
2018-11-25T08:34:00.825Z,49.00
2018-11-25T08:36:33.693Z,56.93
2018-11-25T08:39:03.582Z,47.53
2018-11-25T08:41:36.282Z,63.80
2018-11-25T08:44:05.615Z,54.07
2018-11-25T08:46:38.679Z,54.30
2018-11-25T08:49:07.829Z,67.83
2018-11-25T08:51:39.648Z,59.70
2018-11-25T08:54:08.791Z,51.03
2018-11-25T08:56:45.095Z,52.60
2018-11-25T08:59:14.670Z,60.13
2018-11-25T09:01:46.209Z,45.87
2018-11-25T09:04:15.689Z,80.63
2018-11-25T09:06:48.764Z,60.53
2018-11-25T09:09:18.982Z,81.13
2018-11-25T09:11:52.015Z,59.70
2018-11-25T09:14:21.435Z,55.67
2018-11-25T09:16:54.233Z,71.57
2018-11-25T09:19:23.554Z,55.73
2018-11-25T09:21:57.228Z,48.07
2018-11-25T09:24:26.503Z,44.90
2018-11-25T09:26:59.900Z,63.70
2018-11-25T09:29:31.030Z,70.43
2018-11-25T09:32:08.694Z,58.13
2018-11-25T09:34:38.091Z,56.07
2018-11-25T09:37:07.664Z,43.07
2018-11-25T09:39:36.820Z,59.27
2018-11-25T09:42:15.283Z,54.60
2018-11-25T09:44:44.805Z,67.77
2018-11-25T09:47:14.929Z,95.77
2018-11-25T09:49:46.169Z,71.57
2018-11-25T09:52:15.802Z,98.07
2018-11-25T09:54:45.131Z,52.50
2018-11-25T09:57:18.707Z,50.60
2018-11-25T09:59:48.601Z,55.80
2018-11-25T10:02:21.168Z,43.87
2018-11-25T10:04:59.978Z,42.87
2018-11-25T10:07:29.739Z,49.33
2018-11-25T10:09:59.020Z,58.10
2018-11-25T10:12:28.738Z,46.47
2018-11-25T10:14:59.139Z,44.83
2018-11-25T10:17:28.322Z,74.80
2018-11-25T10:19:57.687Z,71.23
2018-11-25T10:22:31.090Z,52.47
2018-11-25T10:25:00.198Z,72.23
2018-11-25T10:27:32.843Z,56.67
2018-11-25T10:30:02.008Z,49.30
2018-11-25T10:32:35.575Z,55.40
2018-11-25T10:35:06.220Z,45.10
2018-11-25T10:37:38.067Z,41.87
2018-11-25T10:40:11.900Z,65.67
2018-11-25T10:42:44.975Z,48.83
2018-11-25T10:45:16.390Z,49.57
2018-11-25T10:47:45.747Z,60.87
2018-11-25T10:50:17.003Z,59.13
2018-11-25T10:52:47.345Z,53.93
2018-11-25T10:55:17.373Z,58.20
2018-11-25T10:57:48.374Z,50.37
2018-11-25T11:00:28.159Z,44.60
2018-11-25T11:03:03.252Z,50.23
2018-11-25T11:05:37.497Z,42.47
2018-11-25T11:08:08.106Z,56.07
2018-11-25T11:10:39.018Z,62.37
2018-11-25T11:13:08.906Z,57.27
2018-11-25T11:15:38.925Z,49.63
2018-11-25T11:18:08.812Z,48.17
2018-11-25T11:20:38.144Z,51.10
2018-11-25T11:23:09.791Z,46.00
2018-11-25T11:25:39.372Z,61.00
2018-11-25T11:28:09.797Z,65.33
2018-11-25T11:30:40.684Z,43.30
2018-11-25T11:33:11.397Z,62.23
2018-11-25T11:35:41.376Z,49.43
2018-11-25T11:38:13.647Z,51.00
2018-11-25T11:40:44.277Z,51.77
2018-11-25T11:43:16.626Z,57.63
2018-11-25T11:45:46.485Z,86.70
2018-11-25T11:48:17.036Z,54.93
2018-11-25T11:50:46.479Z,50.53
2018-11-25T11:53:24.425Z,62.37
2018-11-25T11:55:54.036Z,60.90
2018-11-25T11:58:24.119Z,62.17
2018-11-25T12:00:53.910Z,64.97
2018-11-25T12:03:26.539Z,70.40
2018-11-25T12:05:55.754Z,60.50
2018-11-25T12:08:26.828Z,62.13
2018-11-25T12:10:56.817Z,73.77
2018-11-25T12:13:27.526Z,64.63
2018-11-25T12:15:57.900Z,66.23
2018-11-25T12:18:30.235Z,62.13
2018-11-25T12:21:06.139Z,63.70
2018-11-25T12:23:35.982Z,73.87
2018-11-25T12:26:06.622Z,64.03
2018-11-25T12:28:36.867Z,68.23
2018-11-25T12:31:07.105Z,75.67
2018-11-25T12:33:36.781Z,60.93
2018-11-25T12:36:06.344Z,67.93
2018-11-25T12:38:39.155Z,62.77
2018-11-25T12:41:08.861Z,61.73
2018-11-25T12:43:42.129Z,64.83
2018-11-25T12:46:11.865Z,61.27
2018-11-25T12:48:45.986Z,71.23
2018-11-25T12:51:17.089Z,72.27
2018-11-25T12:53:50.377Z,67.33
2018-11-25T12:56:21.719Z,75.60
2018-11-25T12:58:51.002Z,79.77
2018-11-25T13:01:20.083Z,70.60
2018-11-25T13:03:53.046Z,61.37
2018-11-25T13:06:23.566Z,68.83
2018-11-25T13:09:00.688Z,65.53
2018-11-25T13:11:29.753Z,57.53
2018-11-25T13:13:59.759Z,57.23
2018-11-25T13:16:29.931Z,63.90
2018-11-25T13:19:02.984Z,66.37
2018-11-25T13:21:33.305Z,69.20
2018-11-25T13:24:06.279Z,71.80
2018-11-25T13:26:35.853Z,62.73
2018-11-25T13:29:09.627Z,64.87
2018-11-25T13:31:40.604Z,68.37
2018-11-25T13:34:11.820Z,60.60
2018-11-25T13:36:41.282Z,78.33
2018-11-25T13:39:13.543Z,72.30
2018-11-25T13:41:44.313Z,65.07
2018-11-25T13:44:15.426Z,58.33
2018-11-25T13:46:44.699Z,54.90
2018-11-25T13:49:21.759Z,58.80
2018-11-25T13:51:50.880Z,69.47
2018-11-25T13:54:22.096Z,57.10
2018-11-25T13:56:52.293Z,60.87
2018-11-25T13:59:27.087Z,56.83
2018-11-25T14:01:57.359Z,63.37
2018-11-25T14:04:26.615Z,56.13
2018-11-25T14:06:55.842Z,54.80
2018-11-25T14:09:33.143Z,61.43
2018-11-25T14:12:05.487Z,52.93
2018-11-25T14:14:34.722Z,58.20
2018-11-25T14:17:04.910Z,60.40
2018-11-25T14:19:36.044Z,56.30
2018-11-25T14:22:05.343Z,62.43
2018-11-25T14:24:35.820Z,55.60
2018-11-25T14:27:06.885Z,56.37
2018-11-25T14:29:39.602Z,56.57
2018-11-25T14:32:10.161Z,49.97
2018-11-25T14:34:40.392Z,52.20
2018-11-25T14:37:10.282Z,49.90
2018-11-25T14:39:42.371Z,49.40
2018-11-25T14:42:12.434Z,47.87
2018-11-25T14:44:47.590Z,47.30
2018-11-25T14:47:22.138Z,52.30
2018-11-25T14:49:52.835Z,43.40
2018-11-25T14:52:22.115Z,47.03
2018-11-25T14:54:52.434Z,45.23
2018-11-25T14:57:23.783Z,52.40
2018-11-25T14:59:53.080Z,52.13
2018-11-25T15:02:24.119Z,48.50
2018-11-25T15:05:02.751Z,53.10
2018-11-25T15:07:32.284Z,55.33
2018-11-25T15:10:01.403Z,53.13
2018-11-25T15:12:31.323Z,59.33
2018-11-25T15:15:03.992Z,60.47
2018-11-25T15:17:33.248Z,51.20
2018-11-25T15:20:07.685Z,55.10
2018-11-25T15:22:37.588Z,46.90
2018-11-25T15:25:10.391Z,59.83
2018-11-25T15:27:42.925Z,52.27
2018-11-25T15:30:13.286Z,53.20
2018-11-25T15:32:42.650Z,55.70
2018-11-25T15:35:14.902Z,55.75
2018-11-25T15:37:49.501Z,61.90
2018-11-25T15:40:34.776Z,53.77
2018-11-25T15:43:04.781Z,50.53
2018-11-25T15:45:34.363Z,50.63
2018-11-25T15:48:17.527Z,52.97
2018-11-25T15:50:48.023Z,62.10
2018-11-25T15:53:26.320Z,54.77
2018-11-25T15:55:59.252Z,46.87
2018-11-25T15:58:30.165Z,56.00
2018-11-25T16:01:01.557Z,52.97
2018-11-25T16:03:30.995Z,52.73
2018-11-25T16:06:04.224Z,54.33
2018-11-25T16:08:38.309Z,50.57
2018-11-25T16:11:04.586Z,63.00
2018-11-25T16:13:35.168Z,56.83
2018-11-25T16:16:07.170Z,54.43
2018-11-25T16:18:37.889Z,49.10
2018-11-25T16:21:07.993Z,55.90
2018-11-25T16:23:39.034Z,57.63
2018-11-25T16:26:13.402Z,57.03
2018-11-25T16:28:44.832Z,50.20
2018-11-25T16:31:14.740Z,55.23
2018-11-25T16:33:45.704Z,52.67
2018-11-25T16:36:19.252Z,55.90
2018-11-25T16:38:49.483Z,50.17
2018-11-25T16:41:19.714Z,51.10
2018-11-25T16:43:50.038Z,47.03
2018-11-25T16:46:23.904Z,51.03
2018-11-25T16:48:55.370Z,54.63
2018-11-25T16:51:26.051Z,55.13
2018-11-25T16:53:56.106Z,48.57
2018-11-25T16:56:30.244Z,50.27
2018-11-25T16:59:00.650Z,48.27
2018-11-25T17:01:29.978Z,48.90
2018-11-25T17:03:59.608Z,55.40
2018-11-25T17:06:30.258Z,50.83
2018-11-25T17:09:03.607Z,45.07
2018-11-25T17:11:37.445Z,46.60
2018-11-25T17:14:07.518Z,45.33
2018-11-25T17:16:39.042Z,46.03
2018-11-25T17:19:08.876Z,49.70
2018-11-25T17:21:38.473Z,53.93
2018-11-25T17:24:16.122Z,53.27
2018-11-25T17:26:45.976Z,50.50
2018-11-25T17:29:16.004Z,56.73
2018-11-25T17:31:46.322Z,53.90
2018-11-25T17:34:18.015Z,54.50
2018-11-25T17:36:54.194Z,51.57
2018-11-25T17:39:24.399Z,63.50
2018-11-25T17:41:54.427Z,56.00
2018-11-25T17:44:25.265Z,65.53
2018-11-25T17:46:55.381Z,53.07
2018-11-25T17:49:25.125Z,59.40
2018-11-25T17:51:54.464Z,81.67
2018-11-25T17:54:27.777Z,92.03
2018-11-25T17:56:57.229Z,58.83
2018-11-25T17:59:29.644Z,75.03
2018-11-25T18:02:05.784Z,62.73
2018-11-25T18:04:36.139Z,64.37
2018-11-25T18:07:06.215Z,57.73
2018-11-25T18:09:36.324Z,57.93
2018-11-25T18:12:05.714Z,67.60
2018-11-25T18:14:35.805Z,69.43
2018-11-25T18:17:05.860Z,82.20
2018-11-25T18:19:37.861Z,70.10
2018-11-25T18:22:13.813Z,78.47
2018-11-25T18:24:44.894Z,75.53
2018-11-25T18:27:15.176Z,56.77
2018-11-25T18:29:45.724Z,52.47
2018-11-25T18:32:15.488Z,68.00
2018-11-25T18:34:44.986Z,56.33
2018-11-25T18:37:14.775Z,52.40
2018-11-25T18:39:48.295Z,64.10
2018-11-25T18:42:17.693Z,61.43
2018-11-25T18:44:50.847Z,59.67
2018-11-25T18:47:21.650Z,62.93
2018-11-25T18:49:55.215Z,72.83
2018-11-25T18:52:24.460Z,60.37
2018-11-25T18:55:00.037Z,77.97
2018-11-25T18:57:29.876Z,52.13
2018-11-25T19:00:02.432Z,54.83
2018-11-25T19:02:47.531Z,60.03
2018-11-25T19:05:17.338Z,91.50
2018-11-25T19:07:48.020Z,73.93
2018-11-25T19:10:21.419Z,58.83
2018-11-25T19:12:51.967Z,72.00
2018-11-25T19:15:22.509Z,56.40
2018-11-25T19:17:55.564Z,63.57
2018-11-25T19:20:27.468Z,59.27
2018-11-25T19:22:57.944Z,52.97
2018-11-25T19:25:27.228Z,68.80
2018-11-25T19:27:57.668Z,55.47
2018-11-25T19:30:29.049Z,56.87
2018-11-25T19:32:59.566Z,55.17
2018-11-25T19:35:30.202Z,51.47
2018-11-25T19:38:01.025Z,52.97
2018-11-25T19:40:30.356Z,44.90
2018-11-25T19:43:08.746Z,49.00
2018-11-25T19:45:39.011Z,47.30
2018-11-25T19:48:12.556Z,46.00
2018-11-25T19:50:42.466Z,40.43
2018-11-25T19:53:14.443Z,44.37
2018-11-25T19:55:44.877Z,41.87
2018-11-25T19:58:16.186Z,46.83
2018-11-25T20:00:45.939Z,42.43
2018-11-25T20:03:15.438Z,44.00
2018-11-25T20:05:44.981Z,40.77
2018-11-25T20:08:17.653Z,43.17
2018-11-25T20:10:48.188Z,41.47
2018-11-25T20:13:18.176Z,41.17
2018-11-25T20:15:47.984Z,43.73
2018-11-25T20:18:19.023Z,40.80
2018-11-25T20:20:53.275Z,46.97
2018-11-25T20:23:23.311Z,37.90
2018-11-25T20:25:53.538Z,37.93
2018-11-25T20:28:23.829Z,50.87
2018-11-25T20:30:53.657Z,47.50
2018-11-25T20:33:28.896Z,41.47
2018-11-25T20:35:58.469Z,36.40
2018-11-25T20:38:32.700Z,43.77
2018-11-25T20:41:02.232Z,39.23
2018-11-25T20:43:32.965Z,40.40
2018-11-25T20:46:07.124Z,40.53
2018-11-25T20:48:36.683Z,48.13
2018-11-25T20:51:07.485Z,43.43
2018-11-25T20:53:42.101Z,43.27
2018-11-25T20:56:12.632Z,42.53
2018-11-25T20:58:41.970Z,45.17
2018-11-25T21:01:11.863Z,38.33
2018-11-25T21:03:41.687Z,48.27
2018-11-25T21:06:11.823Z,45.37
2018-11-25T21:08:41.098Z,42.67
2018-11-25T21:11:10.799Z,39.60
2018-11-25T21:13:40.672Z,46.77
2018-11-25T21:16:13.696Z,45.20
2018-11-25T21:18:45.133Z,43.03
2018-11-25T21:21:15.066Z,45.00
2018-11-25T21:23:45.721Z,41.90
2018-11-25T21:26:17.587Z,46.87
2018-11-25T21:28:47.956Z,45.43
2018-11-25T21:31:20.944Z,47.47
2018-11-25T21:33:51.731Z,44.20
2018-11-25T21:36:21.573Z,52.77
2018-11-25T21:38:50.847Z,43.70
2018-11-25T21:41:27.798Z,49.77
2018-11-25T21:43:59.347Z,47.83
2018-11-25T21:46:28.624Z,45.80
2018-11-25T21:48:58.527Z,48.57
2018-11-25T21:51:27.902Z,44.43
2018-11-25T21:53:57.240Z,50.03
2018-11-25T21:56:32.427Z,43.13
2018-11-25T21:59:01.837Z,51.73
2018-11-25T22:01:33.042Z,47.77
2018-11-25T22:04:02.516Z,45.10
2018-11-25T22:06:39.774Z,42.67
2018-11-25T22:09:10.613Z,47.13
2018-11-25T22:11:40.019Z,47.33
2018-11-25T22:14:10.786Z,45.40
2018-11-25T22:16:40.562Z,47.50
2018-11-25T22:19:11.421Z,50.70
2018-11-25T22:21:45.040Z,50.83
2018-11-25T22:24:14.175Z,50.30
2018-11-25T22:26:47.347Z,47.30
2018-11-25T22:29:16.569Z,52.03
2018-11-25T22:31:48.771Z,50.33
2018-11-25T22:34:17.916Z,47.73
2018-11-25T22:36:51.974Z,47.03
2018-11-25T22:39:21.626Z,46.43
2018-11-25T22:41:59.030Z,52.20
2018-11-25T22:44:29.958Z,45.60
2018-11-25T22:47:00.278Z,48.03
2018-11-25T22:49:29.432Z,45.83
2018-11-25T22:52:02.460Z,47.03
2018-11-25T22:54:31.606Z,41.23
2018-11-25T22:57:02.888Z,48.03
2018-11-25T22:59:32.012Z,49.67
2018-11-25T23:02:05.565Z,40.97
2018-11-25T23:04:46.059Z,49.27
2018-11-25T23:07:17.013Z,48.60
2018-11-25T23:09:50.665Z,47.10
2018-11-25T23:12:22.038Z,44.10
2018-11-25T23:14:51.431Z,47.13
2018-11-25T23:17:21.049Z,48.40
2018-11-25T23:19:50.315Z,44.97
2018-11-25T23:22:20.345Z,42.63
2018-11-25T23:24:50.421Z,47.07
2018-11-25T23:27:19.611Z,40.57
2018-11-25T23:29:48.983Z,41.17
2018-11-25T23:32:22.048Z,43.17
2018-11-25T23:34:51.597Z,40.47
2018-11-25T23:37:24.301Z,36.17
2018-11-25T23:39:54.055Z,41.33
2018-11-25T23:42:26.483Z,37.63
2018-11-25T23:44:55.682Z,36.60
2018-11-25T23:47:28.763Z,37.90
2018-11-25T23:49:57.838Z,32.47
2018-11-25T23:52:31.525Z,39.50
2018-11-25T23:55:00.570Z,35.27
2018-11-25T23:57:35.016Z,36.77
